Capitol Logistics 7436

Operating for MZN



KMSP
Minneapolis-St Paul International Airport
Minneapolis, Minnesota
KTPA
Tampa International Airport
Tampa, Florida

Activity Log

Date Flight Route Aircraft Duration
04/11/2021 CPX7436 RST1 ALO SPI PXV J73 LGC FEONA SZW HEVVN FOOXX5 B738 3h 02m

Route Details

Aircraft Information
Primary: Boeing 737-800BCF
Backup: Boeing 757-200SF
Route Data
Distance: 1148nm
Duration: 2h 39m
Recm'd Route: RST1 ALO SPI PXV J73 LGC FEONA SZW HEVVN FOOXX5
Origin Wx: KMSP 180253Z 31004KT 10SM SCT080 SCT100 10/M03 A2999 RMK AO2 SLP160 T01001033 53003
Dest. Wx: KTPA 180316Z 23006KT 7SM SCT010 SCT017 OVC030 25/22 A2991 RMK AO2 T02500222
Notes: